sensor_id;sensor_type;location;lat;lon;timestamp;pressure;altitude;pressure_sealevel;temperature;humidity
57948;BME280;43754;56.992;24.292;2023-05-01T00:00:19;101792.50;;;3.34;97.59
57948;BME280;43754;56.992;24.292;2023-05-01T00:02:56;101794.22;;;3.35;97.28
57948;BME280;43754;56.992;24.292;2023-05-01T00:05:28;101789.84;;;3.34;97.01
57948;BME280;43754;56.992;24.292;2023-05-01T00:08:00;101787.34;;;3.33;97.30
57948;BME280;43754;56.992;24.292;2023-05-01T00:10:34;101790.84;;;3.33;97.33
57948;BME280;43754;56.992;24.292;2023-05-01T00:13:09;101790.00;;;3.33;97.79
57948;BME280;43754;56.992;24.292;2023-05-01T00:15:42;101791.03;;;3.30;98.65
57948;BME280;43754;56.992;24.292;2023-05-01T00:18:14;101790.09;;;3.31;98.04
57948;BME280;43754;56.992;24.292;2023-05-01T00:20:46;101790.31;;;3.28;98.29
57948;BME280;43754;56.992;24.292;2023-05-01T00:23:18;101793.19;;;3.25;98.38
57948;BME280;43754;56.992;24.292;2023-05-01T00:25:50;101787.13;;;3.23;98.80
57948;BME280;43754;56.992;24.292;2023-05-01T00:28:23;101793.59;;;3.19;99.35
57948;BME280;43754;56.992;24.292;2023-05-01T00:30:56;101793.81;;;3.16;100.00
57948;BME280;43754;56.992;24.292;2023-05-01T00:33:28;101802.72;;;3.15;99.76
57948;BME280;43754;56.992;24.292;2023-05-01T00:36:00;101796.69;;;3.13;99.91
57948;BME280;43754;56.992;24.292;2023-05-01T00:38:32;101795.06;;;3.10;99.25
57948;BME280;43754;56.992;24.292;2023-05-01T00:41:04;101803.34;;;3.06;100.00
57948;BME280;43754;56.992;24.292;2023-05-01T00:43:37;101799.13;;;3.03;100.00
57948;BME280;43754;56.992;24.292;2023-05-01T00:46:09;101808.75;;;3.04;100.00
57948;BME280;43754;56.992;24.292;2023-05-01T00:48:42;101799.97;;;3.04;100.00
57948;BME280;43754;56.992;24.292;2023-05-01T00:51:14;101808.09;;;3.01;100.00
57948;BME280;43754;56.992;24.292;2023-05-01T00:53:46;101799.34;;;3.00;100.00
57948;BME280;43754;56.992;24.292;2023-05-01T00:56:18;101797.72;;;2.98;100.00
57948;BME280;43754;56.992;24.292;2023-05-01T00:58:52;101800.50;;;2.96;100.00
57948;BME280;43754;56.992;24.292;2023-05-01T01:01:24;101796.25;;;2.94;100.00
57948;BME280;43754;56.992;24.292;2023-05-01T01:03:57;101799.09;;;2.91;100.00
57948;BME280;43754;56.992;24.292;2023-05-01T01:06:34;101798.47;;;2.87;100.00
57948;BME280;43754;56.992;24.292;2023-05-01T01:09:30;101803.78;;;2.87;100.00
57948;BME280;43754;56.992;24.292;2023-05-01T01:12:15;101802.06;;;2.86;100.00
57948;BME280;43754;56.992;24.292;2023-05-01T01:14:57;101804.06;;;2.83;100.00
57948;BME280;43754;56.992;24.292;2023-05-01T01:17:34;101804.38;;;2.78;100.00
57948;BME280;43754;56.992;24.292;2023-05-01T01:20:18;101801.84;;;2.76;100.00
57948;BME280;43754;56.992;24.292;2023-05-01T01:23:12;101797.59;;;2.74;100.00
57948;BME280;43754;56.992;24.292;2023-05-01T01:26:06;101793.56;;;2.68;100.00
57948;BME280;43754;56.992;24.292;2023-05-01T01:29:06;101800.13;;;2.63;100.00
57948;BME280;43754;56.992;24.292;2023-05-01T01:31:56;101795.03;;;2.60;100.00
57948;BME280;43754;56.992;24.292;2023-05-01T01:34:35;101796.31;;;2.54;100.00
57948;BME280;43754;56.992;24.292;2023-05-01T01:37:15;101801.78;;;2.51;100.00
57948;BME280;43754;56.992;24.292;2023-05-01T01:39:52;101796.78;;;2.47;100.00
57948;BME280;43754;56.992;24.292;2023-05-01T01:42:30;101796.66;;;2.36;100.00
57948;BME280;43754;56.992;24.292;2023-05-01T01:45:14;101803.19;;;2.30;100.00
57948;BME280;43754;56.992;24.292;2023-05-01T01:47:49;101801.72;;;2.26;100.00
57948;BME280;43754;56.992;24.292;2023-05-01T01:50:25;101799.28;;;2.23;100.00
57948;BME280;43754;56.992;24.292;2023-05-01T01:53:00;101808.34;;;2.19;100.00
57948;BME280;43754;56.992;24.292;2023-05-01T01:55:35;101804.22;;;2.15;100.00
57948;BME280;43754;56.992;24.292;2023-05-01T01:58:10;101802.72;;;2.11;100.00
57948;BME280;43754;56.992;24.292;2023-05-01T02:00:44;101803.78;;;2.08;100.00
57948;BME280;43754;56.992;24.292;2023-05-01T02:03:16;101799.63;;;2.04;100.00
57948;BME280;43754;56.992;24.292;2023-05-01T02:05:52;101798.03;;;2.02;100.00
57948;BME280;43754;56.992;24.292;2023-05-01T02:08:28;101805.22;;;2.00;100.00
57948;BME280;43754;56.992;24.292;2023-05-01T02:11:02;101803.59;;;1.97;100.00
57948;BME280;43754;56.992;24.292;2023-05-01T02:13:37;101798.31;;;1.97;100.00
57948;BME280;43754;56.992;24.292;2023-05-01T02:16:10;101810.03;;;1.93;100.00
57948;BME280;43754;56.992;24.292;2023-05-01T02:18:45;101807.50;;;1.92;100.00
57948;BME280;43754;56.992;24.292;2023-05-01T02:21:19;101804.09;;;1.90;100.00
57948;BME280;43754;56.992;24.292;2023-05-01T02:23:51;101812.13;;;1.88;100.00
57948;BME280;43754;56.992;24.292;2023-05-01T02:26:25;101806.47;;;1.80;100.00
57948;BME280;43754;56.992;24.292;2023-05-01T02:28:59;101804.69;;;1.80;100.00
57948;BME280;43754;56.992;24.292;2023-05-01T02:31:32;101804.69;;;1.80;100.00
57948;BME280;43754;56.992;24.292;2023-05-01T02:34:04;101805.75;;;1.78;100.00
57948;BME280;43754;56.992;24.292;2023-05-01T02:36:38;101803.19;;;1.76;100.00
57948;BME280;43754;56.992;24.292;2023-05-01T02:39:10;101793.66;;;1.74;100.00
57948;BME280;43754;56.992;24.292;2023-05-01T02:41:43;101803.75;;;1.67;100.00
57948;BME280;43754;56.992;24.292;2023-05-01T02:44:16;101806.59;;;1.64;100.00
57948;BME280;43754;56.992;24.292;2023-05-01T02:46:51;101796.16;;;1.63;100.00
57948;BME280;43754;56.992;24.292;2023-05-01T02:49:24;101801.59;;;1.60;100.00
57948;BME280;43754;56.992;24.292;2023-05-01T02:51:59;101801.81;;;1.57;100.00
57948;BME280;43754;56.992;24.292;2023-05-01T02:54:33;101803.69;;;1.55;100.00
57948;BME280;43754;56.992;24.292;2023-05-01T02:57:05;101794.16;;;1.52;100.00
57948;BME280;43754;56.992;24.292;2023-05-01T02:59:37;101796.81;;;1.52;100.00
57948;BME280;43754;56.992;24.292;2023-05-01T03:02:11;101798.72;;;1.50;100.00
57948;BME280;43754;56.992;24.292;2023-05-01T03:04:43;101797.94;;;1.48;100.00
57948;BME280;43754;56.992;24.292;2023-05-01T03:07:16;101793.31;;;1.52;100.00
57948;BME280;43754;56.992;24.292;2023-05-01T03:09:50;101798.41;;;1.55;100.00
57948;BME280;43754;56.992;24.292;2023-05-01T03:12:22;101800.03;;;1.57;100.00
57948;BME280;43754;56.992;24.292;2023-05-01T03:14:54;101800.09;;;1.56;100.00
57948;BME280;43754;56.992;24.292;2023-05-01T03:17:27;101799.72;;;1.62;100.00
57948;BME280;43754;56.992;24.292;2023-05-01T03:19:59;101796.81;;;1.66;100.00
57948;BME280;43754;56.992;24.292;2023-05-01T03:22:33;101800.19;;;1.68;100.00
57948;BME280;43754;56.992;24.292;2023-05-01T03:25:05;101796.41;;;1.72;100.00
57948;BME280;43754;56.992;24.292;2023-05-01T03:27:38;101802.25;;;1.77;100.00
57948;BME280;43754;56.992;24.292;2023-05-01T03:30:11;101794.31;;;1.77;100.00
57948;BME280;43754;56.992;24.292;2023-05-01T03:32:45;101793.16;;;1.81;100.00
57948;BME280;43754;56.992;24.292;2023-05-01T03:35:24;101797.31;;;1.85;100.00
57948;BME280;43754;56.992;24.292;2023-05-01T03:37:58;101797.88;;;1.91;100.00
57948;BME280;43754;56.992;24.292;2023-05-01T03:40:49;101801.16;;;1.94;100.00
57948;BME280;43754;56.992;24.292;2023-05-01T03:43:39;101792.09;;;1.98;100.00
57948;BME280;43754;56.992;24.292;2023-05-01T03:46:20;101797.00;;;2.04;100.00
57948;BME280;43754;56.992;24.292;2023-05-01T03:48:52;101795.00;;;2.08;100.00
57948;BME280;43754;56.992;24.292;2023-05-01T03:51:25;101800.72;;;2.14;100.00
57948;BME280;43754;56.992;24.292;2023-05-01T03:54:00;101799.47;;;2.20;100.00
57948;BME280;43754;56.992;24.292;2023-05-01T03:56:40;101800.75;;;2.27;100.00
57948;BME280;43754;56.992;24.292;2023-05-01T03:59:13;101792.66;;;2.43;100.00
57948;BME280;43754;56.992;24.292;2023-05-01T04:01:45;101802.84;;;2.49;100.00
57948;BME280;43754;56.992;24.292;2023-05-01T04:04:17;101803.28;;;2.55;100.00
57948;BME280;43754;56.992;24.292;2023-05-01T04:06:55;101799.69;;;2.56;100.00
57948;BME280;43754;56.992;24.292;2023-05-01T04:09:29;101799.28;;;2.62;100.00
57948;BME280;43754;56.992;24.292;2023-05-01T04:12:02;101808.75;;;2.79;100.00
57948;BME280;43754;56.992;24.292;2023-05-01T04:14:34;101806.41;;;2.87;98.74
57948;BME280;43754;56.992;24.292;2023-05-01T04:17:06;101810.03;;;2.99;98.29
57948;BME280;43754;56.992;24.292;2023-05-01T04:19:40;101805.66;;;3.23;97.26
57948;BME280;43754;56.992;24.292;2023-05-01T04:22:12;101805.25;;;3.42;94.69
57948;BME280;43754;56.992;24.292;2023-05-01T04:24:47;101807.03;;;3.54;93.49
57948;BME280;43754;56.992;24.292;2023-05-01T04:27:19;101812.03;;;3.82;90.96
57948;BME280;43754;56.992;24.292;2023-05-01T04:29:51;101805.56;;;4.57;87.46
57948;BME280;43754;56.992;24.292;2023-05-01T04:32:23;101799.31;;;5.49;80.92
57948;BME280;43754;56.992;24.292;2023-05-01T04:34:55;101801.84;;;6.27;76.45
57948;BME280;43754;56.992;24.292;2023-05-01T04:37:28;101802.84;;;6.78;74.05
57948;BME280;43754;56.992;24.292;2023-05-01T04:40:02;101802.75;;;7.10;72.37
57948;BME280;43754;56.992;24.292;2023-05-01T04:42:34;101809.66;;;7.43;69.51
57948;BME280;43754;56.992;24.292;2023-05-01T04:45:07;101808.97;;;7.81;67.15
57948;BME280;43754;56.992;24.292;2023-05-01T04:47:40;101807.38;;;8.18;67.06
57948;BME280;43754;56.992;24.292;2023-05-01T04:50:12;101802.09;;;8.57;65.04
57948;BME280;43754;56.992;24.292;2023-05-01T04:52:44;101804.59;;;8.87;63.35
57948;BME280;43754;56.992;24.292;2023-05-01T04:55:19;101811.16;;;9.21;63.09
57948;BME280;43754;56.992;24.292;2023-05-01T04:58:11;101814.50;;;9.70;61.92
57948;BME280;43754;56.992;24.292;2023-05-01T05:00:43;101808.38;;;9.78;61.42
57948;BME280;43754;56.992;24.292;2023-05-01T05:03:24;101803.03;;;10.05;60.85
57948;BME280;43754;56.992;24.292;2023-05-01T05:05:56;101810.44;;;10.21;60.52
57948;BME280;43754;56.992;24.292;2023-05-01T05:08:28;101811.84;;;10.42;59.69
57948;BME280;43754;56.992;24.292;2023-05-01T05:11:12;101811.72;;;10.70;59.71
57948;BME280;43754;56.992;24.292;2023-05-01T05:14:00;101815.69;;;11.01;58.00
57948;BME280;43754;56.992;24.292;2023-05-01T05:16:32;101810.34;;;11.27;56.77
57948;BME280;43754;56.992;24.292;2023-05-01T05:19:05;101809.31;;;11.28;54.23
57948;BME280;43754;56.992;24.292;2023-05-01T05:21:41;101809.34;;;11.36;52.56
57948;BME280;43754;56.992;24.292;2023-05-01T05:24:13;101811.38;;;11.34;49.74
57948;BME280;43754;56.992;24.292;2023-05-01T05:26:46;101810.28;;;11.52;50.27
57948;BME280;43754;56.992;24.292;2023-05-01T05:29:19;101813.28;;;11.75;48.12
57948;BME280;43754;56.992;24.292;2023-05-01T05:31:51;101810.69;;;11.66;48.62
57948;BME280;43754;56.992;24.292;2023-05-01T05:34:23;101809.47;;;11.86;48.36
57948;BME280;43754;56.992;24.292;2023-05-01T05:36:55;101812.06;;;12.04;48.38
57948;BME280;43754;56.992;24.292;2023-05-01T05:39:29;101814.69;;;11.87;46.92
57948;BME280;43754;56.992;24.292;2023-05-01T05:42:03;101814.25;;;12.08;46.87
57948;BME280;43754;56.992;24.292;2023-05-01T05:44:37;101813.81;;;12.37;46.44
57948;BME280;43754;56.992;24.292;2023-05-01T05:47:09;101818.72;;;12.50;45.56
57948;BME280;43754;56.992;24.292;2023-05-01T05:49:42;101827.28;;;12.61;44.34
57948;BME280;43754;56.992;24.292;2023-05-01T05:52:14;101821.59;;;12.88;44.29
57948;BME280;43754;56.992;24.292;2023-05-01T05:54:46;101821.09;;;12.93;42.92
57948;BME280;43754;56.992;24.292;2023-05-01T05:57:19;101823.44;;;13.12;43.28
57948;BME280;43754;56.992;24.292;2023-05-01T05:59:54;101820.41;;;13.15;42.49
57948;BME280;43754;56.992;24.292;2023-05-01T06:02:28;101819.19;;;13.42;41.81
57948;BME280;43754;56.992;24.292;2023-05-01T06:05:01;101819.22;;;13.34;40.88
57948;BME280;43754;56.992;24.292;2023-05-01T06:07:33;101822.88;;;13.49;41.54
57948;BME280;43754;56.992;24.292;2023-05-01T06:10:06;101819.97;;;13.67;41.37
57948;BME280;43754;56.992;24.292;2023-05-01T06:12:39;101821.88;;;13.42;42.20
57948;BME280;43754;56.992;24.292;2023-05-01T06:15:28;101821.31;;;13.63;40.91
57948;BME280;43754;56.992;24.292;2023-05-01T06:18:02;101820.78;;;13.75;40.61
57948;BME280;43754;56.992;24.292;2023-05-01T06:20:34;101820.69;;;13.92;39.63
57948;BME280;43754;56.992;24.292;2023-05-01T06:23:06;101817.69;;;13.48;38.22
57948;BME280;43754;56.992;24.292;2023-05-01T06:26:06;101820.38;;;13.48;39.99
57948;BME280;43754;56.992;24.292;2023-05-01T06:28:40;101819.09;;;13.74;39.44
57948;BME280;43754;56.992;24.292;2023-05-01T06:31:12;101818.06;;;13.75;39.17
57948;BME280;43754;56.992;24.292;2023-05-01T06:33:51;101819.88;;;13.28;38.11
57948;BME280;43754;56.992;24.292;2023-05-01T06:36:30;101823.19;;;13.62;40.27
57948;BME280;43754;56.992;24.292;2023-05-01T06:39:02;101818.16;;;13.51;38.44
57948;BME280;43754;56.992;24.292;2023-05-01T06:41:35;101826.56;;;13.64;37.84
57948;BME280;43754;56.992;24.292;2023-05-01T06:44:11;101825.16;;;13.76;37.90
57948;BME280;43754;56.992;24.292;2023-05-01T06:46:43;101828.31;;;13.88;38.09
57948;BME280;43754;56.992;24.292;2023-05-01T06:49:16;101822.06;;;13.88;37.03
57948;BME280;43754;56.992;24.292;2023-05-01T06:51:49;101818.13;;;14.06;37.99
57948;BME280;43754;56.992;24.292;2023-05-01T06:54:21;101820.28;;;14.11;37.62
57948;BME280;43754;56.992;24.292;2023-05-01T06:56:53;101818.88;;;13.84;36.05
57948;BME280;43754;56.992;24.292;2023-05-01T06:59:27;101814.38;;;13.76;36.10
57948;BME280;43754;56.992;24.292;2023-05-01T07:01:59;101813.25;;;13.63;36.54
57948;BME280;43754;56.992;24.292;2023-05-01T07:04:31;101817.56;;;13.80;37.20
57948;BME280;43754;56.992;24.292;2023-05-01T07:07:03;101807.53;;;13.97;35.30
57948;BME280;43754;56.992;24.292;2023-05-01T07:09:35;101808.56;;;13.96;35.72
57948;BME280;43754;56.992;24.292;2023-05-01T07:12:07;101812.25;;;13.95;34.69
57948;BME280;43754;56.992;24.292;2023-05-01T07:14:40;101808.81;;;13.70;34.73
57948;BME280;43754;56.992;24.292;2023-05-01T07:17:12;101810.25;;;13.97;35.01
57948;BME280;43754;56.992;24.292;2023-05-01T07:19:44;101808.94;;;14.15;34.76
57948;BME280;43754;56.992;24.292;2023-05-01T07:22:17;101810.09;;;13.90;33.88
57948;BME280;43754;56.992;24.292;2023-05-01T07:24:49;101813.75;;;14.05;33.02
57948;BME280;43754;56.992;24.292;2023-05-01T07:27:21;101793.34;;;14.11;33.76
57948;BME280;43754;56.992;24.292;2023-05-01T07:29:55;101797.81;;;14.18;34.80
57948;BME280;43754;56.992;24.292;2023-05-01T07:32:29;101784.56;;;14.09;31.52
57948;BME280;43754;56.992;24.292;2023-05-01T07:35:04;101805.56;;;13.82;32.03
57948;BME280;43754;56.992;24.292;2023-05-01T07:37:36;101789.53;;;13.97;32.66
57948;BME280;43754;56.992;24.292;2023-05-01T07:40:09;101795.97;;;14.19;32.83
57948;BME280;43754;56.992;24.292;2023-05-01T07:42:42;101790.22;;;14.22;33.37
57948;BME280;43754;56.992;24.292;2023-05-01T07:45:15;101789.44;;;14.13;32.34
57948;BME280;43754;56.992;24.292;2023-05-01T07:47:47;101790.81;;;14.40;31.55
57948;BME280;43754;56.992;24.292;2023-05-01T07:50:20;101782.00;;;14.46;32.75
57948;BME280;43754;56.992;24.292;2023-05-01T07:52:53;101782.56;;;14.34;31.38
57948;BME280;43754;56.992;24.292;2023-05-01T07:55:25;101777.72;;;14.74;31.50
57948;BME280;43754;56.992;24.292;2023-05-01T07:57:57;101780.34;;;14.83;29.69
57948;BME280;43754;56.992;24.292;2023-05-01T08:00:31;101787.78;;;14.81;30.31
57948;BME280;43754;56.992;24.292;2023-05-01T08:03:03;101780.56;;;14.96;30.31
57948;BME280;43754;56.992;24.292;2023-05-01T08:05:35;101781.34;;;15.19;30.40
57948;BME280;43754;56.992;24.292;2023-05-01T08:08:07;101778.00;;;14.80;30.96
57948;BME280;43754;56.992;24.292;2023-05-01T08:10:39;101777.81;;;15.18;31.91
57948;BME280;43754;56.992;24.292;2023-05-01T08:13:11;101783.03;;;15.35;31.09
57948;BME280;43754;56.992;24.292;2023-05-01T08:15:45;101781.91;;;15.29;29.80
57948;BME280;43754;56.992;24.292;2023-05-01T08:18:17;101784.03;;;15.04;30.17
57948;BME280;43754;56.992;24.292;2023-05-01T08:20:52;101784.78;;;15.13;29.79
57948;BME280;43754;56.992;24.292;2023-05-01T08:23:24;101773.03;;;15.20;29.47
57948;BME280;43754;56.992;24.292;2023-05-01T08:25:56;101778.59;;;14.90;27.82
57948;BME280;43754;56.992;24.292;2023-05-01T08:28:28;101780.13;;;15.07;29.30
57948;BME280;43754;56.992;24.292;2023-05-01T08:31:02;101791.50;;;15.17;29.69
57948;BME280;43754;56.992;24.292;2023-05-01T08:33:34;101779.94;;;15.38;27.54
57948;BME280;43754;56.992;24.292;2023-05-01T08:36:06;101771.75;;;15.31;28.49
57948;BME280;43754;56.992;24.292;2023-05-01T08:38:39;101773.41;;;15.17;28.67
57948;BME280;43754;56.992;24.292;2023-05-01T08:41:14;101772.91;;;14.99;27.98
57948;BME280;43754;56.992;24.292;2023-05-01T08:43:47;101766.50;;;14.86;29.78
57948;BME280;43754;56.992;24.292;2023-05-01T08:46:28;101771.28;;;15.13;30.10
57948;BME280;43754;56.992;24.292;2023-05-01T08:49:01;101766.34;;;15.16;28.64
57948;BME280;43754;56.992;24.292;2023-05-01T08:51:36;101766.81;;;15.05;29.76
57948;BME280;43754;56.992;24.292;2023-05-01T08:54:10;101756.94;;;15.12;28.87
57948;BME280;43754;56.992;24.292;2023-05-01T08:56:45;101762.72;;;15.24;29.98
57948;BME280;43754;56.992;24.292;2023-05-01T08:59:18;101757.16;;;15.70;29.95
57948;BME280;43754;56.992;24.292;2023-05-01T09:01:52;101759.25;;;15.89;29.97
57948;BME280;43754;56.992;24.292;2023-05-01T09:04:24;101760.16;;;15.96;28.98
57948;BME280;43754;56.992;24.292;2023-05-01T09:06:57;101750.28;;;16.24;29.47
57948;BME280;43754;56.992;24.292;2023-05-01T09:09:32;101757.97;;;15.85;29.65
57948;BME280;43754;56.992;24.292;2023-05-01T09:12:12;101758.34;;;15.82;31.28
57948;BME280;43754;56.992;24.292;2023-05-01T09:14:49;101756.53;;;15.53;30.52
57948;BME280;43754;56.992;24.292;2023-05-01T09:17:24;101751.53;;;15.71;30.93
57948;BME280;43754;56.992;24.292;2023-05-01T09:19:56;101740.38;;;15.95;29.91
57948;BME280;43754;56.992;24.292;2023-05-01T09:22:30;101739.25;;;16.04;29.83
57948;BME280;43754;56.992;24.292;2023-05-01T09:25:02;101743.56;;;16.20;29.94
57948;BME280;43754;56.992;24.292;2023-05-01T09:27:35;101746.41;;;16.33;29.52
57948;BME280;43754;56.992;24.292;2023-05-01T09:30:08;101732.03;;;16.54;29.08
57948;BME280;43754;56.992;24.292;2023-05-01T09:32:42;101732.19;;;16.67;30.53
57948;BME280;43754;56.992;24.292;2023-05-01T09:35:14;101731.06;;;16.83;30.64
57948;BME280;43754;56.992;24.292;2023-05-01T09:37:48;101726.88;;;17.08;28.49
57948;BME280;43754;56.992;24.292;2023-05-01T09:40:26;101730.16;;;16.54;29.17
57948;BME280;43754;56.992;24.292;2023-05-01T09:42:58;101729.69;;;16.93;29.76
57948;BME280;43754;56.992;24.292;2023-05-01T09:45:30;101724.47;;;17.20;29.13
57948;BME280;43754;56.992;24.292;2023-05-01T09:48:10;101734.97;;;17.36;29.46
57948;BME280;43754;56.992;24.292;2023-05-01T09:50:43;101723.84;;;17.59;28.71
57948;BME280;43754;56.992;24.292;2023-05-01T09:53:15;101723.78;;;17.52;28.10
57948;BME280;43754;56.992;24.292;2023-05-01T09:55:59;101726.66;;;17.03;28.72
57948;BME280;43754;56.992;24.292;2023-05-01T09:58:31;101724.88;;;16.89;29.08
57948;BME280;43754;56.992;24.292;2023-05-01T10:01:03;101714.72;;;16.97;30.23
57948;BME280;43754;56.992;24.292;2023-05-01T10:03:37;101722.41;;;17.28;29.84
57948;BME280;43754;56.992;24.292;2023-05-01T10:06:09;101719.94;;;17.33;30.14
57948;BME280;43754;56.992;24.292;2023-05-01T10:08:46;101707.56;;;16.41;29.99
57948;BME280;43754;56.992;24.292;2023-05-01T10:11:18;101712.16;;;16.40;29.85
57948;BME280;43754;56.992;24.292;2023-05-01T10:14:05;101708.03;;;16.23;29.46
57948;BME280;43754;56.992;24.292;2023-05-01T10:16:38;101707.69;;;16.11;31.37
57948;BME280;43754;56.992;24.292;2023-05-01T10:19:12;101707.75;;;15.97;30.91
57948;BME280;43754;56.992;24.292;2023-05-01T10:21:44;101689.25;;;16.15;31.40
57948;BME280;43754;56.992;24.292;2023-05-01T10:24:16;101699.03;;;16.86;30.71
57948;BME280;43754;56.992;24.292;2023-05-01T10:26:50;101699.66;;;16.88;30.73
57948;BME280;43754;56.992;24.292;2023-05-01T10:29:23;101694.38;;;16.52;31.23
57948;BME280;43754;56.992;24.292;2023-05-01T10:31:57;101683.03;;;16.21;31.62
57948;BME280;43754;56.992;24.292;2023-05-01T10:34:33;101680.06;;;16.37;32.07
57948;BME280;43754;56.992;24.292;2023-05-01T10:37:10;101680.91;;;16.38;33.05
57948;BME280;43754;56.992;24.292;2023-05-01T10:39:43;101693.22;;;16.40;32.98
57948;BME280;43754;56.992;24.292;2023-05-01T10:42:15;101680.78;;;16.25;32.00
57948;BME280;43754;56.992;24.292;2023-05-01T10:44:48;101684.84;;;16.14;32.97
57948;BME280;43754;56.992;24.292;2023-05-01T10:47:45;101673.22;;;16.63;34.19
57948;BME280;43754;56.992;24.292;2023-05-01T10:50:18;101678.03;;;16.67;32.71
57948;BME280;43754;56.992;24.292;2023-05-01T10:53:15;101676.69;;;16.56;33.73
57948;BME280;43754;56.992;24.292;2023-05-01T10:55:48;101686.63;;;16.28;32.81
57948;BME280;43754;56.992;24.292;2023-05-01T10:58:54;101682.47;;;16.26;32.01
57948;BME280;43754;56.992;24.292;2023-05-01T11:01:27;101679.13;;;16.02;32.13
57948;BME280;43754;56.992;24.292;2023-05-01T11:04:02;101681.19;;;16.22;32.89
57948;BME280;43754;56.992;24.292;2023-05-01T11:07:13;101688.09;;;15.38;31.99
57948;BME280;43754;56.992;24.292;2023-05-01T11:09:46;101677.94;;;15.54;33.84
57948;BME280;43754;56.992;24.292;2023-05-01T11:12:48;101665.34;;;15.97;33.68
57948;BME280;43754;56.992;24.292;2023-05-01T11:15:29;101677.00;;;15.98;33.22
57948;BME280;43754;56.992;24.292;2023-05-01T11:18:02;101684.38;;;15.89;33.79
57948;BME280;43754;56.992;24.292;2023-05-01T11:20:49;101687.75;;;15.26;32.76
57948;BME280;43754;56.992;24.292;2023-05-01T11:23:23;101685.31;;;15.16;34.70
57948;BME280;43754;56.992;24.292;2023-05-01T11:26:02;101683.16;;;15.12;36.46
57948;BME280;43754;56.992;24.292;2023-05-01T11:28:37;101690.81;;;15.23;36.07
57948;BME280;43754;56.992;24.292;2023-05-01T11:31:15;101685.41;;;15.08;36.80
57948;BME280;43754;56.992;24.292;2023-05-01T11:33:48;101681.03;;;15.51;37.67
57948;BME280;43754;56.992;24.292;2023-05-01T11:36:20;101684.41;;;15.75;37.01
57948;BME280;43754;56.992;24.292;2023-05-01T11:38:54;101680.53;;;15.62;37.12
57948;BME280;43754;56.992;24.292;2023-05-01T11:41:27;101678.41;;;15.58;38.11
57948;BME280;43754;56.992;24.292;2023-05-01T11:43:59;101669.75;;;15.48;37.96
57948;BME280;43754;56.992;24.292;2023-05-01T11:46:31;101667.41;;;15.45;37.83
57948;BME280;43754;56.992;24.292;2023-05-01T11:49:04;101667.81;;;15.56;38.10
57948;BME280;43754;56.992;24.292;2023-05-01T11:51:36;101656.75;;;15.73;38.26
57948;BME280;43754;56.992;24.292;2023-05-01T11:54:10;101662.41;;;15.56;38.72
57948;BME280;43754;56.992;24.292;2023-05-01T11:56:46;101663.13;;;15.65;38.66
57948;BME280;43754;56.992;24.292;2023-05-01T11:59:19;101667.47;;;15.66;38.61
57948;BME280;43754;56.992;24.292;2023-05-01T12:01:51;101666.19;;;15.47;38.91
57948;BME280;43754;56.992;24.292;2023-05-01T12:04:25;101672.22;;;15.49;39.27
57948;BME280;43754;56.992;24.292;2023-05-01T12:07:03;101679.09;;;15.31;39.62
57948;BME280;43754;56.992;24.292;2023-05-01T12:09:36;101674.88;;;14.99;40.31
57948;BME280;43754;56.992;24.292;2023-05-01T12:12:08;101679.16;;;14.79;40.82
57948;BME280;43754;56.992;24.292;2023-05-01T12:14:40;101675.19;;;14.89;40.87
57948;BME280;43754;56.992;24.292;2023-05-01T12:17:13;101668.09;;;15.03;40.56
57948;BME280;43754;56.992;24.292;2023-05-01T12:19:46;101670.16;;;15.01;41.03
57948;BME280;43754;56.992;24.292;2023-05-01T12:22:20;101657.94;;;15.05;40.98
57948;BME280;43754;56.992;24.292;2023-05-01T12:24:54;101665.78;;;15.00;40.15
57948;BME280;43754;56.992;24.292;2023-05-01T12:27:26;101659.19;;;15.02;40.75
57948;BME280;43754;56.992;24.292;2023-05-01T12:29:59;101655.97;;;14.99;40.57
57948;BME280;43754;56.992;24.292;2023-05-01T12:32:31;101663.25;;;14.84;41.21
57948;BME280;43754;56.992;24.292;2023-05-01T12:35:14;101669.91;;;14.58;41.63
57948;BME280;43754;56.992;24.292;2023-05-01T12:37:46;101673.81;;;14.33;43.16
57948;BME280;43754;56.992;24.292;2023-05-01T12:40:21;101665.63;;;14.04;44.93
57948;BME280;43754;56.992;24.292;2023-05-01T12:42:55;101667.81;;;13.86;45.27
57948;BME280;43754;56.992;24.292;2023-05-01T12:45:28;101662.03;;;13.89;45.67
57948;BME280;43754;56.992;24.292;2023-05-01T12:48:00;101657.44;;;13.97;45.83
57948;BME280;43754;56.992;24.292;2023-05-01T12:50:35;101658.53;;;14.11;45.39
57948;BME280;43754;56.992;24.292;2023-05-01T12:53:08;101652.91;;;13.98;45.87
57948;BME280;43754;56.992;24.292;2023-05-01T12:55:46;101660.69;;;13.93;45.36
57948;BME280;43754;56.992;24.292;2023-05-01T12:58:19;101657.25;;;13.99;45.62
57948;BME280;43754;56.992;24.292;2023-05-01T13:00:52;101649.16;;;14.21;44.68
57948;BME280;43754;56.992;24.292;2023-05-01T13:03:26;101651.22;;;14.34;44.03
57948;BME280;43754;56.992;24.292;2023-05-01T13:06:00;101646.47;;;14.44;44.89
57948;BME280;43754;56.992;24.292;2023-05-01T13:08:34;101645.25;;;14.61;44.13
57948;BME280;43754;56.992;24.292;2023-05-01T13:11:12;101642.00;;;14.28;43.76
57948;BME280;43754;56.992;24.292;2023-05-01T13:13:45;101643.16;;;14.34;44.39
57948;BME280;43754;56.992;24.292;2023-05-01T13:16:17;101637.16;;;14.24;44.12
57948;BME280;43754;56.992;24.292;2023-05-01T13:18:51;101636.66;;;14.06;44.75